Terminal Aerodrome Forecast
Issued by NWS Green Bay, WI

Home | Current Version | Previous Version | Text Only | Print | Product List | Glossary Off
Versions: 1 2 3 4 5 6 7 8 9 10 11 12 13 14 15 16 17 18 19 20 21 22 23 24 25 26 27 28 29 30 31 32 33 34 35 36 37 38 39 40 41 42 43 44 45

000
FTUS43 KGRB 282339
TAFGRB
TAF
KGRB 282339Z 2900/2924 16010KT P6SM SCT060 SCT120
     FM290200 15005KT P6SM BKN150
     FM291100 15008KT P6SM VCSH SCT050 OVC080
      TEMPO 2912/2916 6SM -SHRA BKN040
     FM291600 21014G24KT P6SM VCSH BKN035 BKN080
      TEMPO 2922/2924 4SM TSRA BKN025CB=

USA.gov is the U.S. government's official web portal to all federal, state and local government web resources and services.